Lynwood, Idaho
Current Conditions -  °F | °C
As of 4:53 PM on Tuesday 25 Nov 2014 (Local Time) from KTWF Reporting Station
Overcast Overcast  
Wind Chill: 54°   Ceiling: 4800
Heat Index: 54°   Visibility: 10mi
Dew Point: 37°   Wind: 23mph
Humidity: 53%   Direction: 240°WSW
Pressure: 30.23"   Gusts: 32mph
Location:  42.2444°N, 114.662°W
Report Text: KTWF 252353Z 24020G28KT 10SM OVC048 12/03 A3023 RMK AO2 PK WND 25031/2309 SLP215 T01220028 10133 20111 53010
Loading
Personal Weather Stations






























Interactive Weather Map New forecast layout! Learn more

10-Day Weather Forecast

Advertisements
Track Severe Weather on mobile